Saujil, Argentina
Current Conditions -  °F | °C
As of 12:00 PM on Thursday 23 Oct 2014 (Local Time) from SANT Reporting Station
Few Clouds Few Clouds  
Wind Chill: 91°   Ceiling: Unl
Heat Index: 92°   Visibility: 4mi
Dew Point: 63°   Wind: 9mph
Humidity: 38%   Direction: 140°SE
Pressure: 29.94"   Gusts: NA
Location:  28.18°S, 66.23°W
Report Text: SANT 231500Z 14008KT 7000 FEW050CB FEW10033/17 Q1014
Loading
Personal Weather Stations






























Interactive Weather Map New forecast layout! Learn more

10-Day Weather Forecast

Advertisements
Track Severe Weather on mobile